sensor_id;sensor_type;location;lat;lon;timestamp;pressure;altitude;pressure_sealevel;temperature;humidity
76022;BME280;64718;52.124;6.226;2023-04-24T00:01:39;99847.97;;;8.98;100.00
76022;BME280;64718;52.124;6.226;2023-04-24T00:04:06;99851.31;;;9.00;100.00
76022;BME280;64718;52.124;6.226;2023-04-24T00:06:36;99839.03;;;9.04;100.00
76022;BME280;64718;52.124;6.226;2023-04-24T00:09:03;99857.13;;;9.05;100.00
76022;BME280;64718;52.124;6.226;2023-04-24T00:11:30;99844.06;;;9.07;100.00
76022;BME280;64718;52.124;6.226;2023-04-24T00:13:58;99854.44;;;9.07;100.00
76022;BME280;64718;52.124;6.226;2023-04-24T00:16:24;99858.78;;;9.06;100.00
76022;BME280;64718;52.124;6.226;2023-04-24T00:18:51;99849.09;;;9.10;100.00
76022;BME280;64718;52.124;6.226;2023-04-24T00:21:18;99847.09;;;9.15;100.00
76022;BME280;64718;52.124;6.226;2023-04-24T00:23:44;99859.22;;;9.14;100.00
76022;BME280;64718;52.124;6.226;2023-04-24T00:26:11;99856.53;;;9.16;100.00
76022;BME280;64718;52.124;6.226;2023-04-24T00:28:37;99857.63;;;9.12;100.00
76022;BME280;64718;52.124;6.226;2023-04-24T00:31:05;99858.22;;;9.17;100.00
76022;BME280;64718;52.124;6.226;2023-04-24T00:33:32;99874.88;;;9.13;100.00
76022;BME280;64718;52.124;6.226;2023-04-24T00:35:58;99863.66;;;9.12;100.00
76022;BME280;64718;52.124;6.226;2023-04-24T00:38:25;99862.50;;;9.18;100.00
76022;BME280;64718;52.124;6.226;2023-04-24T00:40:51;99869.44;;;9.17;100.00
76022;BME280;64718;52.124;6.226;2023-04-24T00:43:19;99871.88;;;9.20;100.00
76022;BME280;64718;52.124;6.226;2023-04-24T00:45:46;99866.75;;;9.19;100.00
76022;BME280;64718;52.124;6.226;2023-04-24T00:48:14;99866.84;;;9.17;100.00
76022;BME280;64718;52.124;6.226;2023-04-24T00:50:42;99867.84;;;9.15;100.00
76022;BME280;64718;52.124;6.226;2023-04-24T00:53:08;99861.06;;;9.12;100.00
76022;BME280;64718;52.124;6.226;2023-04-24T00:55:35;99853.28;;;9.12;100.00
76022;BME280;64718;52.124;6.226;2023-04-24T00:58:03;99877.63;;;9.10;100.00
76022;BME280;64718;52.124;6.226;2023-04-24T01:00:30;99863.97;;;9.06;100.00
76022;BME280;64718;52.124;6.226;2023-04-24T01:02:59;99869.84;;;9.10;100.00
76022;BME280;64718;52.124;6.226;2023-04-24T01:05:27;99865.66;;;9.07;100.00
76022;BME280;64718;52.124;6.226;2023-04-24T01:07:53;99864.81;;;9.07;100.00
76022;BME280;64718;52.124;6.226;2023-04-24T01:10:20;99883.88;;;9.06;100.00
76022;BME280;64718;52.124;6.226;2023-04-24T01:12:46;99871.69;;;9.08;100.00
76022;BME280;64718;52.124;6.226;2023-04-24T01:15:13;99876.88;;;9.08;100.00
76022;BME280;64718;52.124;6.226;2023-04-24T01:17:40;99886.41;;;9.07;100.00
76022;BME280;64718;52.124;6.226;2023-04-24T01:20:07;99887.47;;;9.03;100.00
76022;BME280;64718;52.124;6.226;2023-04-24T01:22:35;99873.16;;;8.96;100.00
76022;BME280;64718;52.124;6.226;2023-04-24T01:25:03;99881.25;;;8.90;100.00
76022;BME280;64718;52.124;6.226;2023-04-24T01:27:30;99877.06;;;8.87;100.00
76022;BME280;64718;52.124;6.226;2023-04-24T01:29:57;99882.41;;;8.84;100.00
76022;BME280;64718;52.124;6.226;2023-04-24T01:32:23;99880.66;;;8.85;100.00
76022;BME280;64718;52.124;6.226;2023-04-24T01:34:50;99879.72;;;8.86;100.00
76022;BME280;64718;52.124;6.226;2023-04-24T01:37:17;99883.91;;;8.88;100.00
76022;BME280;64718;52.124;6.226;2023-04-24T01:39:45;99879.50;;;8.91;100.00
76022;BME280;64718;52.124;6.226;2023-04-24T01:42:12;99875.91;;;8.93;100.00
76022;BME280;64718;52.124;6.226;2023-04-24T01:44:40;99874.16;;;8.94;100.00
76022;BME280;64718;52.124;6.226;2023-04-24T01:47:07;99875.81;;;8.95;100.00
76022;BME280;64718;52.124;6.226;2023-04-24T01:49:34;99873.22;;;8.95;100.00
76022;BME280;64718;52.124;6.226;2023-04-24T01:52:00;99873.66;;;9.03;100.00
76022;BME280;64718;52.124;6.226;2023-04-24T01:54:27;99877.03;;;9.05;100.00
76022;BME280;64718;52.124;6.226;2023-04-24T01:56:55;99877.03;;;9.05;100.00
76022;BME280;64718;52.124;6.226;2023-04-24T01:59:22;99890.00;;;9.05;100.00
76022;BME280;64718;52.124;6.226;2023-04-24T02:01:49;99885.81;;;9.02;100.00
76022;BME280;64718;52.124;6.226;2023-04-24T02:04:16;99882.59;;;8.97;100.00
76022;BME280;64718;52.124;6.226;2023-04-24T02:06:42;99881.00;;;8.95;100.00
76022;BME280;64718;52.124;6.226;2023-04-24T02:09:09;99875.16;;;8.91;100.00
76022;BME280;64718;52.124;6.226;2023-04-24T02:11:36;99876.97;;;8.89;100.00
76022;BME280;64718;52.124;6.226;2023-04-24T02:14:03;99885.84;;;8.85;100.00
76022;BME280;64718;52.124;6.226;2023-04-24T02:16:30;99876.53;;;8.81;100.00
76022;BME280;64718;52.124;6.226;2023-04-24T02:18:58;99879.38;;;8.76;100.00
76022;BME280;64718;52.124;6.226;2023-04-24T02:21:24;99880.28;;;8.75;100.00
76022;BME280;64718;52.124;6.226;2023-04-24T02:23:52;99875.16;;;8.74;100.00
76022;BME280;64718;52.124;6.226;2023-04-24T02:26:19;99885.69;;;8.71;100.00
76022;BME280;64718;52.124;6.226;2023-04-24T02:31:24;99886.44;;;8.73;100.00
76022;BME280;64718;52.124;6.226;2023-04-24T02:33:50;99888.81;;;8.77;100.00
76022;BME280;64718;52.124;6.226;2023-04-24T02:36:17;99881.78;;;8.79;100.00
76022;BME280;64718;52.124;6.226;2023-04-24T02:38:43;99885.22;;;8.80;100.00
76022;BME280;64718;52.124;6.226;2023-04-24T02:41:10;99893.09;;;8.78;100.00
76022;BME280;64718;52.124;6.226;2023-04-24T02:43:37;99881.13;;;8.76;100.00
76022;BME280;64718;52.124;6.226;2023-04-24T02:46:03;99887.13;;;8.76;100.00
76022;BME280;64718;52.124;6.226;2023-04-24T02:48:31;99892.63;;;8.70;100.00
76022;BME280;64718;52.124;6.226;2023-04-24T02:50:58;99883.25;;;8.68;100.00
76022;BME280;64718;52.124;6.226;2023-04-24T02:53:24;99885.84;;;8.68;100.00
76022;BME280;64718;52.124;6.226;2023-04-24T02:55:50;99881.50;;;8.68;100.00
76022;BME280;64718;52.124;6.226;2023-04-24T02:58:17;99880.72;;;8.66;100.00
76022;BME280;64718;52.124;6.226;2023-04-24T03:00:45;99887.66;;;8.66;100.00
76022;BME280;64718;52.124;6.226;2023-04-24T03:03:11;99886.81;;;8.65;100.00
76022;BME280;64718;52.124;6.226;2023-04-24T03:05:39;99885.84;;;8.68;100.00
76022;BME280;64718;52.124;6.226;2023-04-24T03:08:06;99888.50;;;8.66;100.00
76022;BME280;64718;52.124;6.226;2023-04-24T03:10:32;99886.69;;;8.68;100.00
76022;BME280;64718;52.124;6.226;2023-04-24T03:12:59;99888.38;;;8.69;100.00
76022;BME280;64718;52.124;6.226;2023-04-24T03:15:26;99890.03;;;8.70;100.00
76022;BME280;64718;52.124;6.226;2023-04-24T03:17:52;99886.44;;;8.73;100.00
76022;BME280;64718;52.124;6.226;2023-04-24T03:20:19;99886.44;;;8.73;100.00
76022;BME280;64718;52.124;6.226;2023-04-24T03:22:47;99888.91;;;8.76;100.00
76022;BME280;64718;52.124;6.226;2023-04-24T03:25:14;99883.88;;;8.73;100.00
76022;BME280;64718;52.124;6.226;2023-04-24T03:27:40;99890.72;;;8.74;100.00
76022;BME280;64718;52.124;6.226;2023-04-24T03:30:08;99889.97;;;8.72;100.00
76022;BME280;64718;52.124;6.226;2023-04-24T03:32:34;99896.00;;;8.72;100.00
76022;BME280;64718;52.124;6.226;2023-04-24T03:35:01;99904.53;;;8.74;100.00
76022;BME280;64718;52.124;6.226;2023-04-24T03:37:28;99900.25;;;8.73;100.00
76022;BME280;64718;52.124;6.226;2023-04-24T03:39:56;99898.50;;;8.74;100.00
76022;BME280;64718;52.124;6.226;2023-04-24T03:42:22;99901.00;;;8.75;100.00
76022;BME280;64718;52.124;6.226;2023-04-24T03:44:49;99903.75;;;8.72;100.00
76022;BME280;64718;52.124;6.226;2023-04-24T03:47:15;99911.63;;;8.71;100.00
76022;BME280;64718;52.124;6.226;2023-04-24T03:49:42;99901.31;;;8.69;100.00
76022;BME280;64718;52.124;6.226;2023-04-24T03:52:08;99904.75;;;8.70;100.00
76022;BME280;64718;52.124;6.226;2023-04-24T03:54:35;99904.97;;;8.65;100.00
76022;BME280;64718;52.124;6.226;2023-04-24T03:57:03;99911.06;;;8.64;100.00
76022;BME280;64718;52.124;6.226;2023-04-24T03:59:30;99911.22;;;8.61;100.00
76022;BME280;64718;52.124;6.226;2023-04-24T04:01:56;99910.38;;;8.61;100.00
76022;BME280;64718;52.124;6.226;2023-04-24T04:04:23;99914.72;;;8.60;100.00
76022;BME280;64718;52.124;6.226;2023-04-24T04:06:49;99912.03;;;8.62;100.00
76022;BME280;64718;52.124;6.226;2023-04-24T04:09:16;99911.06;;;8.64;100.00
76022;BME280;64718;52.124;6.226;2023-04-24T04:11:42;99914.63;;;8.62;100.00
76022;BME280;64718;52.124;6.226;2023-04-24T04:14:10;99921.56;;;8.61;100.00
76022;BME280;64718;52.124;6.226;2023-04-24T04:16:37;99926.75;;;8.61;100.00
76022;BME280;64718;52.124;6.226;2023-04-24T04:19:04;99927.66;;;8.60;100.00
76022;BME280;64718;52.124;6.226;2023-04-24T04:21:30;99931.09;;;8.61;100.00
76022;BME280;64718;52.124;6.226;2023-04-24T04:23:57;99935.44;;;8.60;100.00
76022;BME280;64718;52.124;6.226;2023-04-24T04:26:24;99934.69;;;8.58;100.00
76022;BME280;64718;52.124;6.226;2023-04-24T04:28:50;99941.63;;;8.57;100.00
76022;BME280;64718;52.124;6.226;2023-04-24T04:31:18;99938.13;;;8.59;100.00
76022;BME280;64718;52.124;6.226;2023-04-24T04:33:46;99940.84;;;8.55;100.00
76022;BME280;64718;52.124;6.226;2023-04-24T04:36:12;99946.97;;;8.54;100.00
76022;BME280;64718;52.124;6.226;2023-04-24T04:38:39;99945.19;;;8.55;100.00
76022;BME280;64718;52.124;6.226;2023-04-24T04:41:05;99947.03;;;8.53;100.00
76022;BME280;64718;52.124;6.226;2023-04-24T04:43:32;99947.09;;;8.51;100.00
76022;BME280;64718;52.124;6.226;2023-04-24T04:45:59;99945.44;;;8.50;100.00
76022;BME280;64718;52.124;6.226;2023-04-24T04:48:30;99952.50;;;8.47;100.00
76022;BME280;64718;52.124;6.226;2023-04-24T04:50:56;99954.41;;;8.43;100.00
76022;BME280;64718;52.124;6.226;2023-04-24T04:53:24;99958.06;;;8.39;100.00
76022;BME280;64718;52.124;6.226;2023-04-24T04:55:51;99950.44;;;8.36;100.00
76022;BME280;64718;52.124;6.226;2023-04-24T04:58:17;99948.09;;;8.30;100.00
76022;BME280;64718;52.124;6.226;2023-04-24T05:00:44;99947.28;;;8.30;100.00
76022;BME280;64718;52.124;6.226;2023-04-24T05:03:11;99955.88;;;8.30;100.00
76022;BME280;64718;52.124;6.226;2023-04-24T05:05:39;99953.22;;;8.32;100.00
76022;BME280;64718;52.124;6.226;2023-04-24T05:08:06;99951.53;;;8.31;100.00
76022;BME280;64718;52.124;6.226;2023-04-24T05:10:33;99947.19;;;8.31;100.00
76022;BME280;64718;52.124;6.226;2023-04-24T05:13:02;99949.72;;;8.33;100.00
76022;BME280;64718;52.124;6.226;2023-04-24T05:15:28;99957.44;;;8.34;100.00
76022;BME280;64718;52.124;6.226;2023-04-24T05:17:55;99952.25;;;8.34;100.00
76022;BME280;64718;52.124;6.226;2023-04-24T05:20:22;99956.47;;;8.37;100.00
76022;BME280;64718;52.124;6.226;2023-04-24T05:22:50;99956.47;;;8.37;100.00
76022;BME280;64718;52.124;6.226;2023-04-24T05:25:16;99952.88;;;8.39;100.00
76022;BME280;64718;52.124;6.226;2023-04-24T05:27:43;99959.81;;;8.39;100.00
76022;BME280;64718;52.124;6.226;2023-04-24T05:30:11;99958.97;;;8.38;100.00
76022;BME280;64718;52.124;6.226;2023-04-24T05:32:38;99953.72;;;8.40;100.00
76022;BME280;64718;52.124;6.226;2023-04-24T05:35:05;99960.66;;;8.39;100.00
76022;BME280;64718;52.124;6.226;2023-04-24T05:37:31;99966.69;;;8.40;100.00
76022;BME280;64718;52.124;6.226;2023-04-24T05:39:59;99967.50;;;8.40;100.00
76022;BME280;64718;52.124;6.226;2023-04-24T05:42:26;99972.69;;;8.40;100.00
76022;BME280;64718;52.124;6.226;2023-04-24T05:44:52;99977.03;;;8.40;100.00
76022;BME280;64718;52.124;6.226;2023-04-24T05:47:19;99978.78;;;8.39;100.00
76022;BME280;64718;52.124;6.226;2023-04-24T05:49:46;99977.88;;;8.40;100.00
76022;BME280;64718;52.124;6.226;2023-04-24T05:52:13;99976.06;;;8.42;100.00
76022;BME280;64718;52.124;6.226;2023-04-24T05:54:40;99977.94;;;8.39;100.00
76022;BME280;64718;52.124;6.226;2023-04-24T05:57:08;99983.34;;;8.34;100.00
76022;BME280;64718;52.124;6.226;2023-04-24T05:59:36;99977.38;;;8.32;100.00
76022;BME280;64718;52.124;6.226;2023-04-24T06:02:03;99998.09;;;8.32;100.00
76022;BME280;64718;52.124;6.226;2023-04-24T06:04:31;99992.22;;;8.29;100.00
76022;BME280;64718;52.124;6.226;2023-04-24T06:06:58;99999.16;;;8.28;100.00
76022;BME280;64718;52.124;6.226;2023-04-24T06:09:25;100007.69;;;8.30;100.00
76022;BME280;64718;52.124;6.226;2023-04-24T06:11:52;100003.44;;;8.29;100.00
76022;BME280;64718;52.124;6.226;2023-04-24T06:14:20;100007.59;;;8.33;100.00
76022;BME280;64718;52.124;6.226;2023-04-24T06:16:47;100006.72;;;8.33;100.00
76022;BME280;64718;52.124;6.226;2023-04-24T06:19:13;100007.59;;;8.33;100.00
76022;BME280;64718;52.124;6.226;2023-04-24T06:21:40;100010.19;;;8.33;100.00
76022;BME280;64718;52.124;6.226;2023-04-24T06:24:06;100014.44;;;8.34;100.00
76022;BME280;64718;52.124;6.226;2023-04-24T06:26:33;100012.63;;;8.36;100.00
76022;BME280;64718;52.124;6.226;2023-04-24T06:29:00;100020.25;;;8.39;100.00
76022;BME280;64718;52.124;6.226;2023-04-24T06:31:28;100021.22;;;8.37;100.00
76022;BME280;64718;52.124;6.226;2023-04-24T06:33:54;100028.09;;;8.38;100.00
76022;BME280;64718;52.124;6.226;2023-04-24T06:36:21;100026.50;;;8.35;100.00
76022;BME280;64718;52.124;6.226;2023-04-24T06:38:47;100036.94;;;8.34;100.00
76022;BME280;64718;52.124;6.226;2023-04-24T06:41:14;100033.53;;;8.32;100.00
76022;BME280;64718;52.124;6.226;2023-04-24T06:43:40;100030.25;;;8.28;100.00
76022;BME280;64718;52.124;6.226;2023-04-24T06:46:07;100039.69;;;8.29;100.00
76022;BME280;64718;52.124;6.226;2023-04-24T06:48:35;100047.47;;;8.29;100.00
76022;BME280;64718;52.124;6.226;2023-04-24T06:51:01;100046.78;;;8.25;100.00
76022;BME280;64718;52.124;6.226;2023-04-24T06:53:28;100043.97;;;8.30;100.00
76022;BME280;64718;52.124;6.226;2023-04-24T06:55:55;100050.81;;;8.31;100.00
76022;BME280;64718;52.124;6.226;2023-04-24T06:58:21;100050.72;;;8.34;100.00
76022;BME280;64718;52.124;6.226;2023-04-24T07:00:48;100055.91;;;8.34;100.00
76022;BME280;64718;52.124;6.226;2023-04-24T07:03:14;100061.09;;;8.34;100.00
76022;BME280;64718;52.124;6.226;2023-04-24T07:05:42;100054.00;;;8.38;100.00
76022;BME280;64718;52.124;6.226;2023-04-24T07:08:09;100065.75;;;8.45;100.00
76022;BME280;64718;52.124;6.226;2023-04-24T07:10:36;100061.22;;;8.50;100.00
76022;BME280;64718;52.124;6.226;2023-04-24T07:13:03;100068.22;;;8.48;100.00
76022;BME280;64718;52.124;6.226;2023-04-24T07:15:29;100072.34;;;8.52;100.00
76022;BME280;64718;52.124;6.226;2023-04-24T07:17:57;100075.84;;;8.51;100.00
76022;BME280;64718;52.124;6.226;2023-04-24T07:20:24;100082.03;;;8.67;100.00
76022;BME280;64718;52.124;6.226;2023-04-24T07:22:52;100082.50;;;8.75;100.00
76022;BME280;64718;52.124;6.226;2023-04-24T07:25:19;100084.81;;;8.81;100.00
76022;BME280;64718;52.124;6.226;2023-04-24T07:27:45;100090.47;;;8.90;100.00
76022;BME280;64718;52.124;6.226;2023-04-24T07:30:13;100094.59;;;8.94;100.00
76022;BME280;64718;52.124;6.226;2023-04-24T07:32:40;100088.72;;;8.90;100.00
76022;BME280;64718;52.124;6.226;2023-04-24T07:35:07;100099.06;;;8.90;100.00
76022;BME280;64718;52.124;6.226;2023-04-24T07:37:35;100106.84;;;8.90;100.00
76022;BME280;64718;52.124;6.226;2023-04-24T07:40:03;100103.34;;;8.91;100.00
76022;BME280;64718;52.124;6.226;2023-04-24T07:42:29;100105.09;;;8.91;100.00
76022;BME280;64718;52.124;6.226;2023-04-24T07:44:56;100110.72;;;8.81;100.00
76022;BME280;64718;52.124;6.226;2023-04-24T07:47:24;100117.53;;;8.84;100.00
76022;BME280;64718;52.124;6.226;2023-04-24T07:49:51;100121.59;;;8.71;100.00
76022;BME280;64718;52.124;6.226;2023-04-24T07:52:17;100116.41;;;8.71;100.00
76022;BME280;64718;52.124;6.226;2023-04-24T07:54:44;100126.13;;;8.66;100.00
76022;BME280;64718;52.124;6.226;2023-04-24T07:57:12;100126.09;;;8.67;100.00
76022;BME280;64718;52.124;6.226;2023-04-24T07:59:39;100129.53;;;8.68;100.00
76022;BME280;64718;52.124;6.226;2023-04-24T08:02:05;100129.06;;;8.58;100.00
76022;BME280;64718;52.124;6.226;2023-04-24T08:04:32;100132.38;;;8.62;100.00
76022;BME280;64718;52.124;6.226;2023-04-24T08:06:59;100133.56;;;8.54;100.00
76022;BME280;64718;52.124;6.226;2023-04-24T08:09:25;100144.47;;;8.61;100.00
76022;BME280;64718;52.124;6.226;2023-04-24T08:11:52;100153.03;;;8.63;100.00
76022;BME280;64718;52.124;6.226;2023-04-24T08:14:20;100161.56;;;8.65;100.00
76022;BME280;64718;52.124;6.226;2023-04-24T08:16:46;100161.47;;;8.68;100.00
76022;BME280;64718;52.124;6.226;2023-04-24T08:19:13;100168.19;;;8.72;100.00
76022;BME280;64718;52.124;6.226;2023-04-24T08:21:39;100176.59;;;8.77;100.00
76022;BME280;64718;52.124;6.226;2023-04-24T08:24:06;100180.03;;;8.78;100.00
76022;BME280;64718;52.124;6.226;2023-04-24T08:26:33;100193.06;;;8.76;100.00
76022;BME280;64718;52.124;6.226;2023-04-24T08:29:00;100200.22;;;8.71;100.00
76022;BME280;64718;52.124;6.226;2023-04-24T08:31:28;100210.06;;;8.63;100.00
76022;BME280;64718;52.124;6.226;2023-04-24T08:33:54;100215.03;;;8.49;100.00
76022;BME280;64718;52.124;6.226;2023-04-24T08:36:21;100213.47;;;8.45;100.00
76022;BME280;64718;52.124;6.226;2023-04-24T08:38:48;100224.88;;;8.41;100.00
76022;BME280;64718;52.124;6.226;2023-04-24T08:41:15;100236.16;;;8.40;100.00
76022;BME280;64718;52.124;6.226;2023-04-24T08:43:45;100241.53;;;8.35;100.00
76022;BME280;64718;52.124;6.226;2023-04-24T08:46:13;100244.97;;;8.36;100.00
76022;BME280;64718;52.124;6.226;2023-04-24T08:48:41;100250.09;;;8.37;100.00
76022;BME280;64718;52.124;6.226;2023-04-24T08:51:08;100262.91;;;8.40;100.00
76022;BME280;64718;52.124;6.226;2023-04-24T08:53:36;100259.41;;;8.41;100.00
76022;BME280;64718;52.124;6.226;2023-04-24T08:56:03;100262.56;;;8.28;100.00
76022;BME280;64718;52.124;6.226;2023-04-24T08:58:33;100270.94;;;8.34;100.00
76022;BME280;64718;52.124;6.226;2023-04-24T09:01:00;100280.34;;;8.37;100.00
76022;BME280;64718;52.124;6.226;2023-04-24T09:03:27;100285.59;;;8.35;100.00
76022;BME280;64718;52.124;6.226;2023-04-24T09:05:57;100287.06;;;8.41;100.00
76022;BME280;64718;52.124;6.226;2023-04-24T09:08:24;100293.94;;;8.42;100.00
76022;BME280;64718;52.124;6.226;2023-04-24T09:10:51;100301.78;;;8.40;100.00
76022;BME280;64718;52.124;6.226;2023-04-24T09:13:18;100317.25;;;8.42;100.00
76022;BME280;64718;52.124;6.226;2023-04-24T09:15:45;100310.25;;;8.44;100.00
76022;BME280;64718;52.124;6.226;2023-04-24T09:18:12;100319.59;;;8.48;100.00
76022;BME280;64718;52.124;6.226;2023-04-24T09:20:58;100318.81;;;8.46;100.00
76022;BME280;64718;52.124;6.226;2023-04-24T09:23:26;100330.94;;;8.45;100.00
76022;BME280;64718;52.124;6.226;2023-04-24T09:25:55;100332.81;;;8.42;100.00
76022;BME280;64718;52.124;6.226;2023-04-24T09:28:25;100339.22;;;8.33;100.00
76022;BME280;64718;52.124;6.226;2023-04-24T09:31:02;100354.03;;;8.30;100.00
76022;BME280;64718;52.124;6.226;2023-04-24T09:33:29;100355.63;;;8.32;100.00
76022;BME280;64718;52.124;6.226;2023-04-24T09:35:57;100360.59;;;8.38;100.00
76022;BME280;64718;52.124;6.226;2023-04-24T09:38:30;100363.19;;;8.38;100.00
76022;BME280;64718;52.124;6.226;2023-04-24T09:40:59;100370.97;;;8.38;100.00
76022;BME280;64718;52.124;6.226;2023-04-24T09:43:26;100366.63;;;8.39;100.00
76022;BME280;64718;52.124;6.226;2023-04-24T09:45:55;100374.69;;;8.31;100.00
76022;BME280;64718;52.124;6.226;2023-04-24T09:48:30;100379.28;;;8.24;100.00
76022;BME280;64718;52.124;6.226;2023-04-24T09:50:58;100399.47;;;8.16;100.00
76022;BME280;64718;52.124;6.226;2023-04-24T09:53:26;100399.03;;;8.05;100.00
76022;BME280;64718;52.124;6.226;2023-04-24T09:55:53;100401.59;;;8.05;100.00
76022;BME280;64718;52.124;6.226;2023-04-24T09:58:24;100412.69;;;8.09;100.00
76022;BME280;64718;52.124;6.226;2023-04-24T10:00:53;100413.56;;;8.09;100.00
76022;BME280;64718;52.124;6.226;2023-04-24T10:03:20;100417.09;;;8.07;100.00
76022;BME280;64718;52.124;6.226;2023-04-24T10:05:47;100430.63;;;7.91;100.00
76022;BME280;64718;52.124;6.226;2023-04-24T10:08:15;100444.94;;;7.78;100.00
76022;BME280;64718;52.124;6.226;2023-04-24T10:10:42;100440.56;;;7.80;100.00
76022;BME280;64718;52.124;6.226;2023-04-24T10:13:12;100437.97;;;7.80;100.00
76022;BME280;64718;52.124;6.226;2023-04-24T10:15:40;100450.63;;;7.88;100.00
76022;BME280;64718;52.124;6.226;2023-04-24T10:18:08;100452.78;;;7.99;100.00
76022;BME280;64718;52.124;6.226;2023-04-24T10:20:37;100457.06;;;8.23;100.00
76022;BME280;64718;52.124;6.226;2023-04-24T10:23:04;100446.38;;;8.31;100.00
76022;BME280;64718;52.124;6.226;2023-04-24T10:25:34;100453.94;;;8.37;100.00
76022;BME280;64718;52.124;6.226;2023-04-24T10:28:02;100462.97;;;8.48;100.00
76022;BME280;64718;52.124;6.226;2023-04-24T10:30:31;100458.63;;;8.71;100.00
76022;BME280;64718;52.124;6.226;2023-04-24T10:33:00;100464.81;;;8.88;100.00
76022;BME280;64718;52.124;6.226;2023-04-24T10:35:30;100477.56;;;8.73;100.00
76022;BME280;64718;52.124;6.226;2023-04-24T10:37:59;100475.63;;;8.56;100.00
76022;BME280;64718;52.124;6.226;2023-04-24T10:40:30;100483.84;;;8.45;100.00
76022;BME280;64718;52.124;6.226;2023-04-24T10:42:59;100481.06;;;8.50;100.00
76022;BME280;64718;52.124;6.226;2023-04-24T10:45:26;100488.97;;;8.69;100.00
76022;BME280;64718;52.124;6.226;2023-04-24T10:47:56;100476.81;;;8.91;100.00
76022;BME280;64718;52.124;6.226;2023-04-24T10:50:23;100485.50;;;9.51;100.00
76022;BME280;64718;52.124;6.226;2023-04-24T10:52:51;100495.25;;;9.85;100.00
76022;BME280;64718;52.124;6.226;2023-04-24T10:55:41;100492.16;;;10.14;100.00
76022;BME280;64718;52.124;6.226;2023-04-24T10:58:10;100497.13;;;10.38;100.00
76022;BME280;64718;52.124;6.226;2023-04-24T11:00:37;100500.72;;;10.17;100.00
76022;BME280;64718;52.124;6.226;2023-04-24T11:03:04;100511.47;;;10.09;100.00
76022;BME280;64718;52.124;6.226;2023-04-24T11:05:50;100516.09;;;10.40;100.00
76022;BME280;64718;52.124;6.226;2023-04-24T11:08:25;100520.34;;;10.42;100.00
76022;BME280;64718;52.124;6.226;2023-04-24T11:11:03;100523.78;;;10.43;100.00
76022;BME280;64718;52.124;6.226;2023-04-24T11:14:03;100522.28;;;10.19;98.87
76022;BME280;64718;52.124;6.226;2023-04-24T11:16:35;100518.28;;;10.11;99.32
76022;BME280;64718;52.124;6.226;2023-04-24T11:19:05;100532.34;;;10.26;100.00
76022;BME280;64718;52.124;6.226;2023-04-24T11:21:38;100536.34;;;10.52;100.00
76022;BME280;64718;52.124;6.226;2023-04-24T11:24:23;100536.34;;;10.33;100.00
76022;BME280;64718;52.124;6.226;2023-04-24T11:26:51;100533.91;;;10.49;100.00
76022;BME280;64718;52.124;6.226;2023-04-24T11:29:19;100537.31;;;10.68;100.00
76022;BME280;64718;52.124;6.226;2023-04-24T11:31:46;100536.41;;;10.32;100.00
76022;BME280;64718;52.124;6.226;2023-04-24T11:34:15;100541.53;;;10.14;100.00
76022;BME280;64718;52.124;6.226;2023-04-24T11:36:43;100536.28;;;10.35;100.00
76022;BME280;64718;52.124;6.226;2023-04-24T11:39:10;100540.09;;;10.47;98.50
76022;BME280;64718;52.124;6.226;2023-04-24T11:41:37;100552.22;;;10.65;99.88
76022;BME280;64718;52.124;6.226;2023-04-24T11:44:06;100547.41;;;11.11;100.00
76022;BME280;64718;52.124;6.226;2023-04-24T11:46:34;100563.59;;;10.62;99.83
76022;BME280;64718;52.124;6.226;2023-04-24T11:49:03;100561.25;;;10.00;97.89
76022;BME280;64718;52.124;6.226;2023-04-24T11:51:29;100564.91;;;9.75;99.89
76022;BME280;64718;52.124;6.226;2023-04-24T11:53:56;100570.16;;;9.74;99.62
76022;BME280;64718;52.124;6.226;2023-04-24T11:56:23;100578.34;;;9.65;98.50
76022;BME280;64718;52.124;6.226;2023-04-24T11:58:52;100589.91;;;9.58;96.71
76022;BME280;64718;52.124;6.226;2023-04-24T12:01:19;100598.94;;;9.29;99.90
76022;BME280;64718;52.124;6.226;2023-04-24T12:03:49;100598.16;;;9.27;100.00
76022;BME280;64718;52.124;6.226;2023-04-24T12:06:16;100606.59;;;9.52;100.00
76022;BME280;64718;52.124;6.226;2023-04-24T12:08:46;100605.03;;;9.48;100.00
76022;BME280;64718;52.124;6.226;2023-04-24T12:11:15;100610.69;;;9.37;100.00
76022;BME280;64718;52.124;6.226;2023-04-24T12:13:41;100607.06;;;9.19;100.00
76022;BME280;64718;52.124;6.226;2023-04-24T12:16:08;100605.22;;;9.43;100.00
76022;BME280;64718;52.124;6.226;2023-04-24T12:18:34;100610.22;;;9.68;100.00
76022;BME280;64718;52.124;6.226;2023-04-24T12:21:19;100612.78;;;10.29;99.68
76022;BME280;64718;52.124;6.226;2023-04-24T12:23:46;100606.00;;;10.45;97.69
76022;BME280;64718;52.124;6.226;2023-04-24T12:26:16;100609.50;;;10.63;96.48
76022;BME280;64718;52.124;6.226;2023-04-24T12:28:43;100615.41;;;10.67;96.05
76022;BME280;64718;52.124;6.226;2023-04-24T12:31:12;100614.94;;;11.14;94.08
76022;BME280;64718;52.124;6.226;2023-04-24T12:33:38;100620.13;;;10.59;94.47
76022;BME280;64718;52.124;6.226;2023-04-24T12:36:05;100620.25;;;10.74;98.51
76022;BME280;64718;52.124;6.226;2023-04-24T12:38:33;100618.47;;;10.37;98.35
76022;BME280;64718;52.124;6.226;2023-04-24T12:41:07;100624.31;;;10.03;97.99
76022;BME280;64718;52.124;6.226;2023-04-24T12:43:34;100624.44;;;9.80;99.88
76022;BME280;64718;52.124;6.226;2023-04-24T12:46:01;100631.53;;;9.76;100.00
76022;BME280;64718;52.124;6.226;2023-04-24T12:48:28;100634.72;;;9.63;100.00
76022;BME280;64718;52.124;6.226;2023-04-24T12:50:57;100636.59;;;9.59;100.00
76022;BME280;64718;52.124;6.226;2023-04-24T12:53:26;100637.09;;;9.67;100.00
76022;BME280;64718;52.124;6.226;2023-04-24T12:55:55;100633.22;;;9.77;100.00
76022;BME280;64718;52.124;6.226;2023-04-24T12:58:22;100637.69;;;10.14;99.86
76022;BME280;64718;52.124;6.226;2023-04-24T13:00:48;100647.09;;;10.17;96.24